Putte, Belgium
Current Conditions -  °F | °C
As of 5:20 PM on Thursday 30 Oct 2014 (Local Time) from EBBR Reporting Station
Clear Clear  
Wind Chill: 59°   Ceiling: Unl
Heat Index: 59°   Visibility: 6mi
Dew Point: 54°   Wind: 3mph
Humidity: 82%   Direction: 180°S
Pressure: 30.18"   Gusts: NA
Location:  51.05°N, 4.63°E
Report Text: EBBR 301620Z 18003KT CAVOK 15/12 Q1022 NOSIG
Loading
Personal Weather Stations






























Interactive Weather Map
Tropical Storm Tracking
New forecast layout! Learn more

10-Day Weather Forecast

Advertisements
Track Severe Weather on mobile